Time;durP1;ratioP1;P1;durP2;ratioP2;P2;SDS_P1;SDS_P2;PMS_P1;PMS_P2;Temp;Humidity;BMP_temperature;BMP_pressure;BME280_temperature;BME280_humidity;BME280_pressure;Samples;Min_cycle;Max_cycle;Signal;HPM_P1;HPM_P2
2024/01/07 00:00:47;;;;;;;0.98;0.70;;;10.20;99.90;;;;;;6306749;22;20002;-73
2024/01/07 00:03:13;;;;;;;2.63;1.52;;;10.20;99.90;;;;;;6306974;22;20007;-73
2024/01/07 00:05:38;;;;;;;2.60;1.60;;;10.20;99.90;;;;;;6308072;22;20003;-73
2024/01/07 00:08:05;;;;;;;3.30;1.58;;;10.20;99.90;;;;;;6307898;22;19999;-73
2024/01/07 00:10:51;;;;;;;2.77;1.10;;;10.20;99.90;;;;;;6307502;22;19999;-73
2024/01/07 00:13:58;;;;;;;2.77;0.70;;;10.10;99.90;;;;;;6307037;22;20026;-73
2024/01/07 00:23:39;;;;;;;0.82;0.52;;;10.10;99.90;;;;;;6307398;22;20060;-73
2024/01/07 00:32:46;;;;;;;0.70;0.50;;;10.10;99.90;;;;;;6064710;23;20011;-73
2024/01/07 00:38:58;;;;;;;0.60;0.38;;;10.10;99.90;;;;;;6028632;23;20058;-73
2024/01/07 00:41:24;;;;;;;0.85;0.40;;;10.10;99.90;;;;;;6107124;23;20353;-73
2024/01/07 00:43:50;;;;;;;0.40;0.30;;;10.10;99.90;;;;;;6233394;22;20003;-73
2024/01/07 00:46:16;;;;;;;1.30;0.30;;;10.20;99.90;;;;;;6306716;22;20012;-73
2024/01/07 00:48:41;;;;;;;0.27;0.23;;;10.10;99.90;;;;;;6306924;22;19995;-73
2024/01/07 00:51:07;;;;;;;0.80;0.40;;;10.10;99.90;;;;;;6306537;22;19999;-73
2024/01/07 00:53:33;;;;;;;0.90;0.35;;;10.10;99.90;;;;;;6306683;22;20437;-73
2024/01/07 00:55:59;;;;;;;0.50;0.30;;;10.10;99.90;;;;;;6306322;22;20090;-73
2024/01/07 00:58:25;;;;;;;0.30;0.20;;;10.10;99.90;;;;;;6306506;22;20011;-73
2024/01/07 01:00:53;;;;;;;0.73;0.30;;;10.10;99.90;;;;;;6306914;22;19995;-73
2024/01/07 01:03:19;;;;;;;2.50;0.40;;;10.10;99.90;;;;;;6305053;22;20015;-73
2024/01/07 01:05:45;;;;;;;0.70;0.47;;;10.10;99.90;;;;;;6307894;22;20429;-73
2024/01/07 01:08:11;;;;;;;0.53;0.40;;;10.00;99.90;;;;;;6308419;22;20005;-73
2024/01/07 01:10:37;;;;;;;2.03;0.50;;;10.00;99.90;;;;;;6309072;22;20003;-73
2024/01/07 01:13:03;;;;;;;1.15;0.50;;;9.90;99.90;;;;;;6308597;22;20027;-73
2024/01/07 01:15:29;;;;;;;0.73;0.33;;;9.90;99.90;;;;;;6308452;22;20425;-73
2024/01/07 01:17:55;;;;;;;0.93;0.63;;;9.80;99.90;;;;;;6308566;22;20007;-74
2024/01/07 01:20:21;;;;;;;3.23;0.57;;;9.80;99.90;;;;;;6307170;22;20004;-74
2024/01/07 01:22:46;;;;;;;1.23;0.50;;;9.70;99.90;;;;;;6281119;22;20045;-74
2024/01/07 01:25:12;;;;;;;0.50;0.40;;;9.80;99.90;;;;;;6308096;22;19999;-74
2024/01/07 01:27:38;;;;;;;1.30;0.70;;;9.70;99.90;;;;;;6307977;22;19999;-74
2024/01/07 01:30:04;;;;;;;0.80;0.60;;;9.70;99.90;;;;;;6308711;22;20003;-74
2024/01/07 01:32:30;;;;;;;0.63;0.37;;;9.70;99.90;;;;;;6308162;22;20483;-74
2024/01/07 01:34:56;;;;;;;0.83;0.30;;;9.70;99.90;;;;;;6308462;22;20003;-74
2024/01/07 01:37:22;;;;;;;0.90;0.50;;;9.60;99.90;;;;;;6308975;22;20422;-73
2024/01/07 01:39:47;;;;;;;0.70;0.40;;;9.60;99.90;;;;;;6309224;22;20410;-73
2024/01/07 01:42:13;;;;;;;0.83;0.40;;;9.60;99.90;;;;;;6308950;22;20422;-73
2024/01/07 01:44:41;;;;;;;0.80;0.47;;;9.60;99.90;;;;;;6307254;22;20010;-73
2024/01/07 01:47:31;;;;;;;1.17;0.67;;;9.60;99.90;;;;;;6307066;22;20007;-73
2024/01/07 01:50:39;;;;;;;0.90;0.60;;;9.60;99.90;;;;;;6305518;22;20003;-73
2024/01/07 01:53:32;;;;;;;0.90;0.50;;;9.60;99.90;;;;;;6212241;23;20335;-73
2024/01/07 01:56:23;;;;;;;0.97;0.40;;;9.60;99.90;;;;;;6212758;23;20016;-73
2024/01/07 01:58:49;;;;;;;1.03;0.60;;;9.60;99.90;;;;;;6185918;23;20186;-73
2024/01/07 02:01:57;;;;;;;0.20;0.20;;;9.50;99.90;;;;;;6209886;23;20028;-73
2024/01/07 02:05:25;;;;;;;0.13;0.10;;;9.50;99.90;;;;;;6265386;22;20034;-73
2024/01/07 02:07:50;;;;;;;0.10;0.10;;;9.60;99.90;;;;;;6291227;22;20006;-73
2024/01/07 02:10:16;;;;;;;0.10;0.10;;;9.60;99.90;;;;;;6307450;22;20005;-73
2024/01/07 02:16:33;;;;;;;0.10;0.10;;;9.60;99.90;;;;;;6182853;23;20015;-73
2024/01/07 02:18:59;;;;;;;1.17;0.20;;;9.60;99.90;;;;;;6181930;23;20340;-73
2024/01/07 02:21:25;;;;;;;0.00;0.00;;;9.70;99.90;;;;;;6274886;22;20376;-73
2024/01/07 02:23:51;;;;;;;0.10;0.10;;;9.70;99.90;;;;;;6307495;22;20006;-74
2024/01/07 02:26:18;;;;;;;0.20;0.10;;;9.70;99.90;;;;;;6279965;22;20007;-73
2024/01/07 02:28:44;;;;;;;0.33;0.10;;;9.70;99.90;;;;;;6307552;22;20007;-73
2024/01/07 02:31:09;;;;;;;0.10;0.03;;;9.70;99.90;;;;;;6307549;22;20003;-73
2024/01/07 02:33:35;;;;;;;0.10;0.10;;;9.60;99.90;;;;;;6306976;22;20003;-73
2024/01/07 02:36:01;;;;;;;1.97;0.10;;;9.60;99.90;;;;;;6279701;22;20094;-73
2024/01/07 02:38:27;;;;;;;0.13;0.10;;;9.60;99.90;;;;;;6279925;22;20025;-73
2024/01/07 02:40:52;;;;;;;0.10;0.10;;;9.60;99.90;;;;;;6307555;22;20003;-73
2024/01/07 02:43:18;;;;;;;0.00;0.00;;;9.60;99.90;;;;;;6307278;22;20007;-73
2024/01/07 02:45:44;;;;;;;0.40;0.10;;;9.60;99.90;;;;;;6307597;22;20048;-73
2024/01/07 02:48:09;;;;;;;0.60;0.10;;;9.60;99.90;;;;;;6307594;22;20052;-73
2024/01/07 02:50:35;;;;;;;0.20;0.10;;;9.60;99.90;;;;;;6307698;22;19999;-73
2024/01/07 02:53:01;;;;;;;0.53;0.20;;;9.60;99.90;;;;;;6307416;22;20144;-74
2024/01/07 02:55:27;;;;;;;0.03;0.03;;;9.60;99.90;;;;;;6307431;22;20019;-74
2024/01/07 02:57:52;;;;;;;0.10;0.10;;;9.60;99.90;;;;;;6307166;22;20011;-74
2024/01/07 03:00:18;;;;;;;0.10;0.10;;;9.50;99.90;;;;;;6307562;22;19995;-73
2024/01/07 03:02:44;;;;;;;0.10;0.10;;;9.50;99.90;;;;;;6307289;22;20033;-73
2024/01/07 03:05:10;;;;;;;0.20;0.20;;;9.50;99.90;;;;;;6307161;22;20006;-73
2024/01/07 03:07:39;;;;;;;0.93;0.17;;;9.50;99.90;;;;;;6307031;22;20000;-73
2024/01/07 03:10:06;;;;;;;0.87;0.10;;;9.50;99.90;;;;;;6306990;22;20003;-73
2024/01/07 03:12:31;;;;;;;0.20;0.10;;;9.50;99.90;;;;;;6279815;22;20037;-72
2024/01/07 03:14:57;;;;;;;0.70;0.30;;;9.50;99.90;;;;;;6307132;22;20009;-73
2024/01/07 03:17:23;;;;;;;0.13;0.10;;;9.50;99.90;;;;;;6306920;22;20011;-73
2024/01/07 03:19:49;;;;;;;1.00;0.50;;;9.40;99.90;;;;;;6307801;22;19999;-73
2024/01/07 03:22:15;;;;;;;0.10;0.07;;;9.40;99.90;;;;;;6308198;22;20010;-73
2024/01/07 03:24:42;;;;;;;0.23;0.00;;;9.40;99.90;;;;;;6307978;22;20031;-73
2024/01/07 03:47:45;;;;;;;0.40;0.20;;;9.40;99.90;;;;;;6208696;22;20025;-73
2024/01/07 03:53:43;;;;;;;1.43;0.00;;;9.40;99.90;;;;;;6182417;23;20005;-73
2024/01/07 03:56:09;;;;;;;0.00;0.00;;;9.40;99.90;;;;;;6307215;22;20011;-73
2024/01/07 03:58:35;;;;;;;0.10;0.03;;;9.40;99.90;;;;;;6307261;22;20014;-74
2024/01/07 04:01:01;;;;;;;0.77;0.10;;;9.40;99.90;;;;;;6307165;22;20057;-73
2024/01/07 04:03:27;;;;;;;0.10;0.00;;;9.30;99.90;;;;;;6307252;22;20430;-73
2024/01/07 04:05:53;;;;;;;0.10;0.00;;;9.30;99.90;;;;;;6306992;22;19996;-73
2024/01/07 04:08:19;;;;;;;0.10;0.10;;;9.40;99.90;;;;;;6306921;22;20019;-73
2024/01/07 04:10:44;;;;;;;0.30;0.20;;;9.40;99.90;;;;;;6306668;22;20007;-73
2024/01/07 04:13:10;;;;;;;0.10;0.10;;;9.40;99.90;;;;;;6306755;22;19999;-73
2024/01/07 04:15:36;;;;;;;1.50;0.10;;;9.30;99.90;;;;;;6306617;22;19999;-73
2024/01/07 04:18:03;;;;;;;0.00;0.00;;;9.30;99.90;;;;;;6306609;22;20015;-73
2024/01/07 04:20:29;;;;;;;0.10;0.00;;;9.30;99.90;;;;;;6306899;22;20003;-73
2024/01/07 04:22:56;;;;;;;0.03;0.00;;;9.30;99.90;;;;;;6306702;22;20429;-73
2024/01/07 04:25:23;;;;;;;0.30;0.10;;;9.30;99.90;;;;;;6307302;22;20329;-73
2024/01/07 04:27:48;;;;;;;0.27;0.20;;;9.30;99.90;;;;;;6306988;22;20030;-73
2024/01/07 04:30:14;;;;;;;0.03;0.03;;;9.30;99.90;;;;;;6306720;22;19999;-73
2024/01/07 04:32:40;;;;;;;1.80;0.10;;;9.40;99.90;;;;;;6307169;22;20007;-73
2024/01/07 04:35:06;;;;;;;0.00;0.00;;;9.30;99.90;;;;;;6306632;22;19995;-74
2024/01/07 04:37:33;;;;;;;7.40;4.97;;;9.30;99.90;;;;;;6306616;22;20401;-74
2024/01/07 04:39:59;;;;;;;0.23;0.20;;;9.30;99.90;;;;;;6308021;22;19999;-74
2024/01/07 04:42:24;;;;;;;0.30;0.10;;;9.30;99.90;;;;;;6308846;22;19995;-74
2024/01/07 04:44:50;;;;;;;0.93;0.60;;;9.30;99.90;;;;;;6309032;22;20038;-74
2024/01/07 04:47:34;;;;;;;0.33;0.33;;;9.30;99.90;;;;;;6308907;22;20351;-74
2024/01/07 04:50:00;;;;;;;0.10;0.10;;;9.30;99.90;;;;;;6308542;22;20018;-74
2024/01/07 04:52:26;;;;;;;0.40;0.20;;;9.30;99.90;;;;;;6308999;22;20003;-74
2024/01/07 04:54:53;;;;;;;0.00;0.00;;;9.30;99.90;;;;;;6282144;22;20078;-73
2024/01/07 04:57:19;;;;;;;0.10;0.10;;;9.30;99.90;;;;;;6309415;22;20015;-73
2024/01/07 04:59:46;;;;;;;0.13;0.13;;;9.30;99.90;;;;;;6309711;22;20325;-73
2024/01/07 05:02:12;;;;;;;0.10;0.10;;;9.40;99.90;;;;;;6309407;22;19999;-73
2024/01/07 05:04:41;;;;;;;0.20;0.20;;;9.40;99.90;;;;;;6309357;22;20056;-73
2024/01/07 05:08:00;;;;;;;0.23;0.10;;;9.40;99.90;;;;;;6309100;22;20074;-73
2024/01/07 05:31:20;;;;;;;0.20;0.20;;;9.50;99.90;;;;;;6308778;22;20014;-74
2024/01/07 05:33:46;;;;;;;1.67;0.37;;;9.50;99.90;;;;;;6278888;22;20333;-73
2024/01/07 05:36:12;;;;;;;4.50;2.50;;;9.40;99.90;;;;;;6308672;22;20370;-73
2024/01/07 05:38:38;;;;;;;19.30;12.53;;;9.40;99.90;;;;;;6308369;22;20011;-74
2024/01/07 05:41:05;;;;;;;3.20;2.10;;;9.40;99.90;;;;;;6308149;22;20023;-73
2024/01/07 05:43:31;;;;;;;4.53;2.30;;;9.30;99.90;;;;;;6307711;22;20321;-73
2024/01/07 05:45:57;;;;;;;2.53;1.70;;;9.30;99.90;;;;;;6280311;22;20015;-73
2024/01/07 05:48:23;;;;;;;5.63;3.17;;;9.30;99.90;;;;;;6307805;22;20006;-73
2024/01/07 05:50:49;;;;;;;2.90;1.13;;;9.30;99.90;;;;;;6280839;22;20364;-74
2024/01/07 05:53:16;;;;;;;4.40;2.27;;;9.20;99.90;;;;;;6308102;22;20329;-73
2024/01/07 05:55:41;;;;;;;1.90;0.90;;;9.20;99.90;;;;;;6307298;22;20010;-73
2024/01/07 05:58:07;;;;;;;0.93;0.50;;;9.20;99.90;;;;;;6307616;22;20011;-73
2024/01/07 06:00:33;;;;;;;3.73;0.53;;;9.20;99.90;;;;;;6307668;22;19999;-73
2024/01/07 06:02:59;;;;;;;13.27;8.60;;;9.10;99.90;;;;;;6307855;22;20095;-73
2024/01/07 06:05:24;;;;;;;2.97;1.83;;;9.10;99.90;;;;;;6307389;22;20003;-73
2024/01/07 06:07:50;;;;;;;2.07;0.73;;;9.10;99.90;;;;;;6307700;22;20007;-73
2024/01/07 06:10:16;;;;;;;1.90;0.20;;;9.10;99.90;;;;;;6307538;22;19995;-73
2024/01/07 06:12:42;;;;;;;0.67;0.27;;;9.10;99.90;;;;;;6307826;22;19999;-73
2024/01/07 06:15:08;;;;;;;1.47;0.70;;;9.10;99.90;;;;;;6307796;22;20056;-73
2024/01/07 06:17:34;;;;;;;2.37;1.10;;;9.10;99.90;;;;;;6308092;22;20026;-73
2024/01/07 06:19:59;;;;;;;3.80;1.93;;;9.10;99.90;;;;;;6307627;22;19999;-73
2024/01/07 06:22:25;;;;;;;12.87;4.97;;;9.00;99.90;;;;;;6307719;22;20007;-73
2024/01/07 06:24:51;;;;;;;8.13;3.83;;;9.00;99.90;;;;;;6307524;22;19995;-73
2024/01/07 06:27:17;;;;;;;4.10;1.57;;;9.00;99.90;;;;;;6307733;22;20006;-73
2024/01/07 06:29:42;;;;;;;0.43;0.33;;;9.10;99.90;;;;;;6307608;22;20022;-73
2024/01/07 06:32:09;;;;;;;1.33;0.73;;;9.10;99.90;;;;;;6307647;22;19999;-73
2024/01/07 06:34:36;;;;;;;4.10;1.60;;;9.10;99.90;;;;;;6280445;22;20461;-73
2024/01/07 06:37:02;;;;;;;0.57;0.30;;;9.10;99.90;;;;;;6308179;22;20014;-73
2024/01/07 06:39:27;;;;;;;0.30;0.23;;;9.10;99.90;;;;;;6308860;22;20004;-73
2024/01/07 06:41:54;;;;;;;0.37;0.30;;;9.10;99.90;;;;;;6308541;22;20031;-73
2024/01/07 06:52:01;;;;;;;0.20;0.20;;;9.10;99.90;;;;;;6243841;23;20011;-73
2024/01/07 07:05:11;;;;;;;0.40;0.20;;;9.10;99.90;;;;;;6093616;23;20409;-73
2024/01/07 07:08:04;;;;;;;0.30;0.20;;;9.20;99.90;;;;;;6094178;23;20011;-73
2024/01/07 07:10:31;;;;;;;0.20;0.10;;;9.20;99.90;;;;;;6106665;23;20404;-73
2024/01/07 07:12:57;;;;;;;0.40;0.20;;;9.30;99.90;;;;;;6182571;23;20012;-73
2024/01/07 07:15:26;;;;;;;0.20;0.10;;;9.30;99.90;;;;;;6203985;22;20361;-74
2024/01/07 07:17:52;;;;;;;0.17;0.10;;;9.40;99.90;;;;;;6306966;22;20063;-73
2024/01/07 07:20:19;;;;;;;0.10;0.10;;;9.40;99.90;;;;;;6280045;22;20082;-73
2024/01/07 07:22:45;;;;;;;1.47;0.20;;;9.40;99.90;;;;;;6279715;22;20352;-74
2024/01/07 07:25:11;;;;;;;0.20;0.20;;;9.50;99.90;;;;;;6307117;22;20003;-74
2024/01/07 07:27:37;;;;;;;0.27;0.17;;;9.50;99.90;;;;;;6306761;22;20000;-73
2024/01/07 07:30:05;;;;;;;0.30;0.20;;;9.50;99.90;;;;;;6279106;22;20065;-74
2024/01/07 07:32:30;;;;;;;0.70;0.40;;;9.50;99.90;;;;;;6306912;22;20333;-74
2024/01/07 07:35:08;;;;;;;4.00;1.43;;;9.50;99.90;;;;;;6279714;22;20004;-74
2024/01/07 07:37:40;;;;;;;2.23;1.03;;;9.60;99.90;;;;;;6256026;22;20456;-74
2024/01/07 07:40:06;;;;;;;1.77;1.20;;;9.60;99.90;;;;;;6306993;22;20444;-74
2024/01/07 07:42:32;;;;;;;2.20;1.20;;;9.50;99.90;;;;;;6305523;22;20513;-73
2024/01/07 07:44:58;;;;;;;2.20;1.33;;;9.50;99.90;;;;;;6306741;22;20046;-73
2024/01/07 07:47:24;;;;;;;1.73;1.07;;;9.50;99.90;;;;;;6306426;22;20002;-73
2024/01/07 07:49:50;;;;;;;1.40;1.13;;;9.60;99.90;;;;;;6306632;22;20032;-73
2024/01/07 07:52:16;;;;;;;2.40;0.97;;;9.50;99.90;;;;;;6307248;22;20048;-74
2024/01/07 07:54:41;;;;;;;2.07;1.30;;;9.50;99.90;;;;;;6305499;22;20070;-74
2024/01/07 07:57:07;;;;;;;1.63;1.00;;;9.50;99.90;;;;;;6306603;22;20007;-75
2024/01/07 07:59:33;;;;;;;0.87;0.63;;;9.50;99.90;;;;;;6306576;22;20019;-75
2024/01/07 08:01:59;;;;;;;1.60;1.10;;;9.60;99.90;;;;;;6306337;22;19999;-74
2024/01/07 08:04:26;;;;;;;2.77;0.80;;;9.60;99.90;;;;;;6279364;22;20329;-74
2024/01/07 08:06:52;;;;;;;0.70;0.37;;;9.60;99.90;;;;;;6306718;22;19995;-74
2024/01/07 08:09:18;;;;;;;0.60;0.20;;;9.60;99.90;;;;;;6306818;22;20003;-74
2024/01/07 08:11:44;;;;;;;0.73;0.40;;;9.60;99.90;;;;;;6307968;22;19999;-73
2024/01/07 08:14:09;;;;;;;0.40;0.30;;;9.70;99.90;;;;;;6307311;22;20003;-73
2024/01/07 08:16:35;;;;;;;0.55;0.40;;;9.80;99.90;;;;;;6306961;22;19996;-73
2024/01/07 08:19:02;;;;;;;0.30;0.20;;;9.80;99.90;;;;;;6306966;22;20074;-73
2024/01/07 08:21:31;;;;;;;0.67;0.30;;;9.80;99.90;;;;;;6307076;22;19999;-73
2024/01/07 08:47:11;;;;;;;0.80;0.60;;;9.90;99.90;;;;;;6144406;23;20017;-73
2024/01/07 08:49:38;;;;;;;0.50;0.33;;;9.90;99.90;;;;;;6130932;23;20134;-73
2024/01/07 08:52:05;;;;;;;0.70;0.40;;;9.90;99.90;;;;;;6286175;22;20642;-73
2024/01/07 08:54:30;;;;;;;0.83;0.60;;;10.00;99.90;;;;;;6306629;22;20332;-73
2024/01/07 08:56:56;;;;;;;1.37;0.90;;;10.00;99.90;;;;;;6306983;22;20008;-73
2024/01/07 08:59:22;;;;;;;2.78;1.60;;;10.00;99.90;;;;;;6306666;22;20016;-74
2024/01/07 09:01:48;;;;;;;3.53;1.92;;;10.00;99.90;;;;;;6306777;22;19999;-73
2024/01/07 09:04:14;;;;;;;3.28;2.00;;;10.10;99.90;;;;;;6306513;22;19999;-73
2024/01/07 09:06:40;;;;;;;2.73;1.83;;;10.10;99.90;;;;;;6279131;22;20017;-73
2024/01/07 09:09:06;;;;;;;5.87;1.73;;;10.10;99.90;;;;;;6306798;22;20360;-73
2024/01/07 09:11:32;;;;;;;3.00;1.00;;;10.10;99.90;;;;;;6306443;22;20004;-73
2024/01/07 09:13:58;;;;;;;1.33;0.93;;;10.10;99.90;;;;;;6279276;22;20440;-73
2024/01/07 09:16:23;;;;;;;16.00;2.70;;;10.20;99.90;;;;;;6306545;22;19999;-73
2024/01/07 09:18:50;;;;;;;6.27;4.60;;;10.20;99.90;;;;;;6306482;22;20019;-74
2024/01/07 09:21:16;;;;;;;10.25;6.63;;;10.20;99.90;;;;;;6306366;22;20030;-73
2024/01/07 09:23:44;;;;;;;10.35;6.10;;;10.20;99.90;;;;;;6306677;22;19999;-73
2024/01/07 09:26:10;;;;;;;9.10;5.80;;;10.20;99.90;;;;;;6307304;22;20425;-73
2024/01/07 09:28:36;;;;;;;8.60;5.77;;;10.20;99.90;;;;;;6308912;22;20096;-73
2024/01/07 09:31:02;;;;;;;7.45;4.65;;;10.20;99.90;;;;;;6308352;22;20083;-73
2024/01/07 09:33:28;;;;;;;7.60;4.82;;;10.20;99.90;;;;;;6305989;22;20023;-73
2024/01/07 09:35:54;;;;;;;6.47;4.25;;;10.20;99.90;;;;;;6304927;22;20486;-73
2024/01/07 09:38:20;;;;;;;4.97;3.20;;;10.20;99.90;;;;;;6306074;22;20007;-73
2024/01/07 09:40:46;;;;;;;4.80;3.15;;;10.30;99.90;;;;;;6308483;22;20011;-73
2024/01/07 09:43:12;;;;;;;4.45;2.78;;;10.30;99.90;;;;;;6308108;22;20365;-73
2024/01/07 09:45:45;;;;;;;7.22;4.35;;;10.30;99.90;;;;;;6307723;22;19995;-73
2024/01/07 09:48:11;;;;;;;7.45;4.93;;;10.30;99.90;;;;;;6307740;22;20438;-73
2024/01/07 09:50:37;;;;;;;8.00;4.47;;;10.30;99.90;;;;;;6307878;22;20026;-74
2024/01/07 09:53:04;;;;;;;5.22;3.70;;;10.30;99.90;;;;;;6308035;22;20477;-74
2024/01/07 09:56:04;;;;;;;3.67;2.50;;;10.30;99.90;;;;;;6307654;22;20311;-74
2024/01/07 09:58:33;;;;;;;2.50;1.80;;;10.40;99.90;;;;;;6304501;22;20023;-74
2024/01/07 10:04:25;;;;;;;1.85;1.40;;;10.40;99.90;;;;;;6249173;22;20011;-74
2024/01/07 10:11:01;;;;;;;2.30;1.40;;;10.40;99.90;;;;;;6243598;23;20015;-74
2024/01/07 10:19:47;;;;;;;2.40;1.80;;;10.40;99.90;;;;;;6213298;23;20008;-76
2024/01/07 10:24:04;;;;;;;;;;;;;;;;;;;;;
2024/01/07 10:26:13;;;;;;;3.63;2.00;;;10.40;99.90;;;;;;6089307;23;20022;-74
2024/01/07 10:28:40;;;;;;;3.10;2.15;;;10.40;99.90;;;;;;6066189;23;20394;-74
2024/01/07 10:31:06;;;;;;;4.22;1.35;;;10.40;99.90;;;;;;6125756;23;20012;-74
2024/01/07 10:33:35;;;;;;;5.47;1.75;;;10.40;99.90;;;;;;6232309;22;20007;-73
2024/01/07 10:36:06;;;;;;;5.88;3.20;;;10.50;99.90;;;;;;6307570;22;20008;-73
2024/01/07 10:38:35;;;;;;;7.22;3.65;;;10.50;99.90;;;;;;6307601;22;20015;-74
2024/01/07 10:41:01;;;;;;;17.88;11.05;;;10.50;99.90;;;;;;6307489;22;20045;-73
2024/01/07 10:43:30;;;;;;;12.25;7.50;;;10.50;99.90;;;;;;6307152;22;20017;-72
2024/01/07 10:46:03;;;;;;;9.75;6.03;;;10.50;99.90;;;;;;6307519;22;20026;-72
2024/01/07 10:48:32;;;;;;;6.00;3.33;;;10.50;99.90;;;;;;6307634;22;20425;-72
2024/01/07 10:51:00;;;;;;;4.35;2.67;;;10.40;99.90;;;;;;6307447;22;19999;-71
2024/01/07 10:53:30;;;;;;;2.33;1.48;;;10.50;99.90;;;;;;6307600;22;20448;-72
2024/01/07 10:56:03;;;;;;;2.60;1.50;;;10.50;99.90;;;;;;6307767;22;20322;-73
2024/01/07 10:58:34;;;;;;;2.10;1.55;;;10.50;99.90;;;;;;6307136;22;20409;-73
2024/01/07 11:01:04;;;;;;;2.70;1.80;;;10.50;99.90;;;;;;6307573;22;20003;-72
2024/01/07 11:03:40;;;;;;;4.63;2.05;;;10.50;99.90;;;;;;6307148;22;20425;-73
2024/01/07 11:06:33;;;;;;;3.80;2.55;;;10.50;99.90;;;;;;6307669;22;19999;-73
2024/01/07 11:09:06;;;;;;;4.95;2.85;;;10.60;99.90;;;;;;6307828;22;19999;-73
2024/01/07 11:11:42;;;;;;;6.05;2.72;;;10.60;99.90;;;;;;6306973;22;19995;-73
2024/01/07 11:14:53;;;;;;;3.30;2.00;;;10.60;99.90;;;;;;6307371;22;20376;-73
2024/01/07 11:17:37;;;;;;;2.65;1.52;;;10.60;99.90;;;;;;6242816;23;20017;-73
2024/01/07 11:20:14;;;;;;;3.20;1.60;;;10.70;99.90;;;;;;6306265;22;20082;-74
2024/01/07 11:22:39;;;;;;;3.80;1.45;;;10.60;99.90;;;;;;6306678;22;20027;-73
2024/01/07 11:25:30;;;;;;;2.45;1.17;;;10.70;99.90;;;;;;6280248;22;20011;-73
2024/01/07 11:27:57;;;;;;;2.13;1.15;;;10.70;99.90;;;;;;6306641;22;20025;-72
2024/01/07 11:30:24;;;;;;;2.60;1.73;;;10.70;99.90;;;;;;6306607;22;20010;-72
2024/01/07 11:33:00;;;;;;;2.10;1.13;;;10.70;99.90;;;;;;6307312;22;19999;-72
2024/01/07 11:39:51;;;;;;;2.85;1.30;;;10.70;99.90;;;;;;6272668;22;20018;-73
2024/01/07 11:55:40;;;;;;;1.40;0.82;;;10.60;99.90;;;;;;6303706;22;20026;-78
2024/01/07 11:58:06;;;;;;;1.47;0.90;;;10.60;99.90;;;;;;6304715;22;20443;-72
2024/01/07 12:00:32;;;;;;;1.33;0.90;;;10.60;99.90;;;;;;6303598;22;20298;-73
2024/01/07 12:03:01;;;;;;;2.40;1.08;;;10.60;99.90;;;;;;6304886;22;20318;-75
2024/01/07 12:05:27;;;;;;;2.03;1.10;;;10.50;99.90;;;;;;6306719;22;20009;-72
2024/01/07 12:07:53;;;;;;;1.85;0.93;;;10.50;99.90;;;;;;6306798;22;19999;-72
2024/01/07 12:10:19;;;;;;;1.52;1.05;;;10.50;99.90;;;;;;6305595;22;20022;-72
2024/01/07 12:12:46;;;;;;;1.05;0.75;;;10.50;99.90;;;;;;6303523;22;20029;-72
2024/01/07 12:15:17;;;;;;;1.35;0.73;;;10.50;99.90;;;;;;6303453;22;20006;-71
2024/01/07 12:17:55;;;;;;;1.90;0.90;;;10.40;99.90;;;;;;6305187;22;20038;-72
2024/01/07 12:20:23;;;;;;;1.52;1.00;;;10.40;99.90;;;;;;6306413;22;19996;-72
2024/01/07 12:22:48;;;;;;;1.25;0.80;;;10.40;99.90;;;;;;6306389;22;20017;-72
2024/01/07 12:25:23;;;;;;;1.85;0.95;;;10.40;99.90;;;;;;6306544;22;20019;-71
2024/01/07 12:27:52;;;;;;;2.20;0.90;;;10.40;99.90;;;;;;6306460;22;20306;-71
2024/01/07 12:30:19;;;;;;;1.30;0.70;;;10.40;99.90;;;;;;6306505;22;20442;-69
2024/01/07 12:32:48;;;;;;;3.13;1.10;;;10.40;99.90;;;;;;6306579;22;20010;-71
2024/01/07 12:35:13;;;;;;;2.23;0.87;;;10.40;99.90;;;;;;6306268;22;19999;-72
2024/01/07 12:37:39;;;;;;;2.30;0.77;;;10.40;99.90;;;;;;6305962;22;20018;-72
2024/01/07 12:40:08;;;;;;;1.58;1.00;;;10.40;99.90;;;;;;6305982;22;19995;-71
2024/01/07 12:42:34;;;;;;;2.15;1.13;;;10.40;99.90;;;;;;6306822;22;20333;-72
2024/01/07 12:45:03;;;;;;;2.30;1.17;;;10.40;99.90;;;;;;6307009;22;19995;-73
2024/01/07 12:47:29;;;;;;;1.27;0.90;;;10.40;99.90;;;;;;6306520;22;20007;-72
2024/01/07 12:49:54;;;;;;;1.33;0.80;;;10.40;99.90;;;;;;6278523;22;20011;-72
2024/01/07 12:52:20;;;;;;;1.05;0.70;;;10.40;99.90;;;;;;6306760;22;20064;-73
2024/01/07 12:54:47;;;;;;;1.95;0.90;;;10.40;99.90;;;;;;6307111;22;20056;-72
2024/01/07 12:57:12;;;;;;;1.73;1.25;;;10.40;99.90;;;;;;6306803;22;20052;-72
2024/01/07 12:59:38;;;;;;;3.10;0.90;;;10.40;99.90;;;;;;6307571;22;20003;-72
2024/01/07 13:02:05;;;;;;;1.13;0.70;;;10.40;99.90;;;;;;6308791;22;20003;-72
2024/01/07 13:05:03;;;;;;;1.10;0.77;;;10.40;99.90;;;;;;6308734;22;20370;-72
2024/01/07 13:10:49;;;;;;;2.13;1.02;;;10.50;99.90;;;;;;6282357;22;20012;-72
2024/01/07 13:17:17;;;;;;;1.63;1.15;;;10.50;99.90;;;;;;6154006;23;20013;-72
2024/01/07 13:20:58;;;;;;;2.22;1.20;;;10.50;99.90;;;;;;6183484;23;20088;-74
2024/01/07 13:23:43;;;;;;;2.78;1.40;;;10.40;99.90;;;;;;6140889;23;20664;-72
2024/01/07 13:27:14;;;;;;;3.33;1.30;;;10.40;99.90;;;;;;6182712;23;20454;-72
2024/01/07 13:29:52;;;;;;;1.57;1.00;;;10.40;99.80;;;;;;6157599;23;20382;-72
2024/01/07 13:32:18;;;;;;;2.25;1.25;;;10.40;99.70;;;;;;6184006;23;20406;-72
2024/01/07 13:34:45;;;;;;;1.98;1.08;;;10.40;99.50;;;;;;6183411;22;20345;-72
2024/01/07 13:37:10;;;;;;;1.83;1.20;;;10.40;99.50;;;;;;6308145;22;20078;-72
2024/01/07 13:39:38;;;;;;;4.80;1.40;;;10.40;99.40;;;;;;6308427;22;20418;-72
2024/01/07 13:42:07;;;;;;;3.43;2.00;;;10.40;99.60;;;;;;6307445;22;20299;-72
2024/01/07 13:44:36;;;;;;;2.97;2.00;;;10.40;99.90;;;;;;6280394;22;20302;-71
2024/01/07 13:47:02;;;;;;;2.72;1.65;;;10.40;99.60;;;;;;6280546;22;20298;-72
2024/01/07 13:49:28;;;;;;;2.90;1.48;;;10.40;99.00;;;;;;6307390;22;20034;-72
2024/01/07 13:51:58;;;;;;;2.72;1.70;;;10.40;99.40;;;;;;6307957;22;20034;-72
2024/01/07 13:54:24;;;;;;;2.17;1.40;;;10.30;99.60;;;;;;6307896;22;20475;-72
2024/01/07 13:56:50;;;;;;;3.60;1.98;;;10.40;99.90;;;;;;6307208;22;19999;-73
2024/01/07 13:59:17;;;;;;;6.88;2.88;;;10.30;99.90;;;;;;6307574;22;20007;-73
2024/01/07 14:01:46;;;;;;;2.75;1.52;;;10.30;99.90;;;;;;6308067;22;20320;-73
2024/01/07 14:04:13;;;;;;;1.92;1.30;;;10.30;99.90;;;;;;6307507;22;20367;-72
2024/01/07 14:06:39;;;;;;;2.70;1.50;;;10.30;99.90;;;;;;6307841;22;20000;-72
2024/01/07 14:09:06;;;;;;;4.35;3.17;;;10.30;99.80;;;;;;6307676;22;20076;-72
2024/01/07 14:11:32;;;;;;;10.57;7.82;;;10.40;99.40;;;;;;6307107;22;20003;-72
2024/01/07 14:13:57;;;;;;;18.50;12.87;;;10.40;99.20;;;;;;6307974;22;20075;-72
2024/01/07 14:16:23;;;;;;;3.45;2.10;;;10.30;98.90;;;;;;6307843;22;20007;-72
2024/01/07 14:18:49;;;;;;;3.17;2.00;;;10.40;99.00;;;;;;6304568;22;20018;-72
2024/01/07 14:21:15;;;;;;;6.80;4.00;;;10.30;99.00;;;;;;6304495;22;20366;-72
2024/01/07 14:23:41;;;;;;;3.22;2.33;;;10.30;99.10;;;;;;6278438;22;20007;-72
2024/01/07 14:26:07;;;;;;;4.97;2.80;;;10.30;99.40;;;;;;6307664;22;20306;-72
2024/01/07 14:28:33;;;;;;;3.38;2.28;;;10.40;99.60;;;;;;6280121;22;20003;-72
2024/01/07 14:30:58;;;;;;;4.53;3.22;;;10.40;99.30;;;;;;6307582;22;20046;-72
2024/01/07 14:33:24;;;;;;;3.00;2.40;;;10.30;99.40;;;;;;6308407;22;20003;-72
2024/01/07 14:35:50;;;;;;;2.42;1.58;;;10.30;99.70;;;;;;6308651;22;20031;-72
2024/01/07 14:38:16;;;;;;;2.80;1.83;;;10.30;99.90;;;;;;6308205;22;20014;-72
2024/01/07 14:41:03;;;;;;;2.88;1.40;;;10.30;99.90;;;;;;6308503;22;20002;-72
2024/01/07 14:47:01;;;;;;;3.65;1.88;;;10.30;99.90;;;;;;6295152;22;20056;-72
2024/01/07 14:56:54;;;;;;;3.65;2.10;;;10.10;99.90;;;;;;6308027;22;20459;-73
2024/01/07 14:59:20;;;;;;;3.17;2.00;;;10.10;99.90;;;;;;6243503;23;20020;-73
2024/01/07 15:02:40;;;;;;;;;;;;;;;;;;;;;
2024/01/07 15:04:59;;;;;;;1.77;1.15;;;10.00;99.90;;;;;;6235679;23;20022;-73
2024/01/07 15:07:25;;;;;;;1.67;1.00;;;10.10;99.90;;;;;;6307062;22;20376;-72
2024/01/07 15:09:51;;;;;;;1.93;1.20;;;10.10;99.90;;;;;;6307754;22;20352;-72
2024/01/07 15:12:18;;;;;;;2.07;1.50;;;10.10;99.90;;;;;;6307447;22;20002;-72
2024/01/07 15:14:44;;;;;;;2.25;1.20;;;10.00;99.90;;;;;;6307263;22;20018;-72
2024/01/07 15:17:10;;;;;;;3.60;1.70;;;10.00;99.90;;;;;;6279290;22;20318;-72
2024/01/07 15:19:36;;;;;;;5.88;1.55;;;10.00;99.90;;;;;;6307091;22;19999;-71
2024/01/07 15:22:03;;;;;;;2.92;1.60;;;10.00;99.90;;;;;;6307235;22;19995;-72
2024/01/07 15:24:29;;;;;;;2.90;2.10;;;10.00;99.90;;;;;;6305617;22;20383;-73
2024/01/07 15:26:55;;;;;;;3.10;1.90;;;10.00;99.90;;;;;;6307431;22;20031;-72
2024/01/07 15:29:20;;;;;;;3.30;2.20;;;9.90;99.90;;;;;;6305311;22;20371;-73
2024/01/07 15:31:46;;;;;;;2.45;1.58;;;9.90;99.90;;;;;;6307321;22;19999;-72
2024/01/07 15:34:12;;;;;;;4.07;1.98;;;9.90;99.90;;;;;;6306930;22;20006;-73
2024/01/07 15:36:40;;;;;;;4.50;2.08;;;9.90;99.90;;;;;;6307349;22;20030;-74
2024/01/07 15:39:06;;;;;;;5.27;3.47;;;9.90;99.90;;;;;;6306843;22;20092;-73
2024/01/07 15:41:32;;;;;;;5.47;4.10;;;9.90;99.90;;;;;;6306827;22;20416;-73